METAR AND TAF INFORMATION
METAR FOR LFSO
ADDS - METARS form results

(0153 UTC 07 October 2022)
Data provider http://aviationweather.gov/metar/data/
 
METAR text: LFSO 070130Z AUTO VRB02KT 9999 BKN025 06/05 Q1028
Conditions at: LFSO (NANCY/OCHEY (FAF, FR) observed 0130 UTC 07 October 2022
Temperature: 6.0°C (43°F)
Dewpoint: 5.0°C (41°F) [RH = 93%]
Pressure (altimeter): 30.35 inches Hg (1028.0 mb)
Winds: variable direction winds at 2 MPH (2 knots; 1.0 m/s)
Visibility: 6 or more miles (10+ km)
Ceiling: 2500 feet AGL
Clouds: broken clouds at 2500 feet AGL
Weather: no significant weather observed at this time

METAR text: LFSO 070100Z AUTO 00000KT 9999 FEW026 06/06 Q1029
Conditions at: LFSO (NANCY/OCHEY (FAF, FR) observed 0100 UTC 07 October 2022
Temperature: 6.0°C (43°F)
Dewpoint: 6.0°C (43°F) [RH = 100%]
Pressure (altimeter): 30.38 inches Hg (1029.0 mb)
Winds: calm
Visibility: 6 or more miles (10+ km)
Ceiling: at least 12,000 feet AGL
Clouds: few clouds at 2600 feet AGL
Weather: no significant weather observed at this time

Forecast for: LFSO (NANCY/OCHEY (FAF, FR)
Text: TAF LFSO 062000Z 0621/0721 VRB02KT CAVOK
Forecast period: 2100 UTC 06 October 2022 to 2100 UTC 07 October 2022
Forecast type: FROM: standard forecast or significant change
Winds: variable direction winds at 2 MPH (2 knots; 1.0 m/s)
Visibility: 6 or more miles (10+ km)
Ceiling: unknown
Clouds: missing
Weather: NSW  (no significant weather)

 AIRPORT MAP

 RUNWAY INFORMATION
Runway 02 Runway length 7878 ft Runway width 148 ft
Runway elevation 1105 ft Runway displaced threshold 0 ft Runway heading 19
Runway 20 Runway length 7878 ft Runway width 148 ft
Runway elevation 1066 ft Runway displaced threshold 0 ft Runway heading 199

 AIRPORT FREQUENCIES
Type APP Name APP Frequency 36.23 MHZ
Type APP Name APP Frequency 127.25 MHZ
Type TWR Name TWR Frequency 122.1 MHZ

 AIRPORT NEAR NAVIGATION AIDS
Type TACAN Name Nancy Frequency 116800 KHZ



Powered by Virtual Airlines Manager [v2.6.2]